createdAt,value
2023-02-02T00:01:09.197Z,98629.81
2023-02-02T00:06:12.021Z,98623.94
2023-02-02T00:11:14.803Z,98620.69
2023-02-02T00:16:29.146Z,98610.25
2023-02-02T00:21:31.657Z,98600.56
2023-02-02T00:26:34.452Z,98605.94
2023-02-02T00:31:37.402Z,98621.81
2023-02-02T00:36:40.418Z,98621.38
2023-02-02T00:41:42.835Z,98629.16
2023-02-02T00:46:45.451Z,98615.66
2023-02-02T00:51:47.957Z,98611.41
2023-02-02T00:56:50.486Z,98607.94
2023-02-02T01:01:53.109Z,98608.34
2023-02-02T01:06:55.505Z,98598.72
2023-02-02T01:11:58.240Z,98618.84
2023-02-02T01:17:01.133Z,98614.22
2023-02-02T01:22:03.779Z,98614.63
2023-02-02T01:27:06.509Z,98628.47
2023-02-02T01:32:09.011Z,98626.81
2023-02-02T01:37:11.938Z,98630.00
2023-02-02T01:42:22.226Z,98632.94
2023-02-02T01:47:30.461Z,98642.16
2023-02-02T01:52:34.648Z,98632.91
2023-02-02T01:57:45.815Z,98629.91
2023-02-02T02:02:49.699Z,98622.91
2023-02-02T02:08:10.519Z,98628.72
2023-02-02T02:13:14.414Z,98626.00
2023-02-02T02:18:40.780Z,98613.63
2023-02-02T02:24:26.937Z,98614.38
2023-02-02T02:29:41.161Z,98624.06
2023-02-02T02:35:11.787Z,98634.09
2023-02-02T02:40:30.370Z,98627.16
2023-02-02T02:45:33.541Z,98631.44
2023-02-02T02:50:36.170Z,98624.13
2023-02-02T02:56:12.195Z,98620.22
2023-02-02T03:01:59.765Z,98622.19
2023-02-02T03:07:24.138Z,98615.28
2023-02-02T03:12:26.621Z,98626.19
2023-02-02T03:17:29.073Z,98624.28
2023-02-02T03:22:31.466Z,98627.75
2023-02-02T03:27:34.029Z,98616.16
2023-02-02T03:32:37.259Z,98618.47
2023-02-02T03:37:40.243Z,98614.56
2023-02-02T03:42:42.729Z,98617.59
2023-02-02T03:47:45.249Z,98612.97
2023-02-02T03:52:47.697Z,98614.91
2023-02-02T03:57:50.213Z,98633.16
2023-02-02T04:02:54.092Z,98631.66
2023-02-02T04:07:56.597Z,98638.16
2023-02-02T04:12:59.014Z,98645.06
2023-02-02T04:18:01.386Z,98651.75
2023-02-02T04:23:03.861Z,98647.94
2023-02-02T04:28:06.301Z,98645.59
2023-02-02T04:33:09.197Z,98645.28
2023-02-02T04:38:11.752Z,98640.41
2023-02-02T04:43:15.352Z,98660.44
2023-02-02T04:48:17.776Z,98654.22
2023-02-02T04:53:20.468Z,98655.84
2023-02-02T04:58:22.993Z,98674.00
2023-02-02T05:03:25.417Z,98676.72
2023-02-02T05:08:27.838Z,98678.59
2023-02-02T05:13:30.291Z,98685.22
2023-02-02T05:18:33.186Z,98698.41
2023-02-02T05:23:35.864Z,98694.50
2023-02-02T05:28:38.581Z,98700.78
2023-02-02T05:33:40.987Z,98705.44
2023-02-02T05:38:43.360Z,98703.47
2023-02-02T05:43:45.822Z,98693.75
2023-02-02T05:48:48.273Z,98693.66
2023-02-02T05:53:50.757Z,98702.16
2023-02-02T05:58:53.184Z,98710.75
2023-02-02T06:03:55.921Z,98694.94
2023-02-02T06:08:58.348Z,98701.03
2023-02-02T06:14:00.847Z,98695.28
2023-02-02T06:19:04.064Z,98694.88
2023-02-02T06:24:07.392Z,98712.66
2023-02-02T06:29:13.558Z,98726.19
2023-02-02T06:34:16.003Z,98730.03
2023-02-02T06:39:18.542Z,98725.06
2023-02-02T06:44:21.134Z,98723.13
2023-02-02T06:49:23.687Z,98735.47
2023-02-02T06:54:26.266Z,98740.03
2023-02-02T06:59:28.661Z,98742.41
2023-02-02T07:04:31.182Z,98748.53
2023-02-02T07:09:34.539Z,98739.28
2023-02-02T07:14:37.118Z,98738.91
2023-02-02T07:19:39.712Z,98734.63
2023-02-02T07:24:42.251Z,98736.31
2023-02-02T07:29:45.595Z,98750.19
2023-02-02T07:34:48.004Z,98756.78
2023-02-02T07:39:50.414Z,98759.44
2023-02-02T07:44:52.836Z,98757.53
2023-02-02T07:49:55.279Z,98762.59
2023-02-02T07:55:13.575Z,98755.66
2023-02-02T08:00:20.607Z,98736.69
2023-02-02T08:05:23.570Z,98729.47
2023-02-02T08:10:26.146Z,98720.97
2023-02-02T08:15:28.767Z,98733.31
2023-02-02T08:20:31.349Z,98737.63
2023-02-02T08:25:33.747Z,98767.84
2023-02-02T08:30:36.687Z,98767.03
2023-02-02T08:35:47.087Z,98785.94
2023-02-02T08:40:49.613Z,98795.66
2023-02-02T08:46:03.247Z,98790.78
2023-02-02T08:51:10.040Z,98810.00
2023-02-02T08:56:18.522Z,98813.16
2023-02-02T09:01:23.944Z,98825.56
2023-02-02T09:06:36.047Z,98832.56
2023-02-02T09:11:39.461Z,98832.91
2023-02-02T09:16:42.574Z,98830.84
2023-02-02T09:21:45.120Z,98826.09
2023-02-02T09:26:47.843Z,98839.38
2023-02-02T09:31:50.589Z,98835.38
2023-02-02T09:36:54.402Z,98835.53
2023-02-02T09:42:11.727Z,98839.84
2023-02-02T09:47:20.066Z,98847.03
2023-02-02T09:52:37.795Z,98853.22
2023-02-02T09:58:07.110Z,98858.28
2023-02-02T10:03:24.749Z,98865.63
2023-02-02T10:08:52.283Z,98865.72
2023-02-02T10:14:02.602Z,98867.28
2023-02-02T10:19:11.027Z,98859.84
2023-02-02T10:24:25.354Z,98873.53
2023-02-02T10:29:59.856Z,98871.28
2023-02-02T10:35:26.707Z,98873.56
2023-02-02T10:40:40.616Z,98881.19
2023-02-02T10:45:45.018Z,98893.19
2023-02-02T10:50:54.603Z,98892.66
2023-02-02T10:56:11.726Z,98891.03
2023-02-02T11:01:18.103Z,98889.66
2023-02-02T11:06:43.719Z,98885.03
2023-02-02T11:11:50.884Z,98877.31
2023-02-02T11:17:05.598Z,98878.91
2023-02-02T11:22:24.158Z,98870.31
2023-02-02T11:27:41.438Z,98871.16
2023-02-02T11:32:47.940Z,98868.81
2023-02-02T11:37:58.332Z,98869.25
2023-02-02T11:43:05.654Z,98868.13
2023-02-02T11:48:19.166Z,98872.31
2023-02-02T11:53:29.790Z,98867.75
2023-02-02T11:58:53.578Z,98875.94
2023-02-02T12:04:01.928Z,98861.97
2023-02-02T12:09:17.095Z,98872.75
2023-02-02T12:14:31.975Z,98872.75
2023-02-02T12:20:03.570Z,98868.00
2023-02-02T12:25:15.181Z,98871.88
2023-02-02T12:30:37.558Z,98868.75
2023-02-02T12:36:12.015Z,98864.63
2023-02-02T12:41:42.577Z,98873.34
2023-02-02T12:46:53.456Z,98865.22
2023-02-02T12:52:21.519Z,98876.44
2023-02-02T12:58:01.449Z,98876.25
2023-02-02T13:03:31.369Z,98878.53
2023-02-02T13:08:58.749Z,98873.94
2023-02-02T13:14:06.901Z,98875.34
2023-02-02T13:19:18.399Z,98877.63
2023-02-02T13:24:28.521Z,98871.41
2023-02-02T13:29:56.502Z,98870.03
2023-02-02T13:35:17.525Z,98880.91
2023-02-02T13:40:42.584Z,98874.94
2023-02-02T13:46:09.341Z,98885.78
2023-02-02T13:51:53.765Z,98896.91
2023-02-02T13:57:16.707Z,98915.00
2023-02-02T14:02:33.699Z,98920.16
2023-02-02T14:07:44.079Z,98920.25
2023-02-02T14:12:47.047Z,98906.63
2023-02-02T14:17:53.344Z,98911.66
2023-02-02T14:22:55.859Z,98927.13
2023-02-02T14:28:00.626Z,98918.66
2023-02-02T14:33:21.792Z,98919.00
2023-02-02T14:38:24.280Z,98919.72
2023-02-02T14:43:48.014Z,98918.25
2023-02-02T14:49:13.538Z,98938.38
2023-02-02T14:54:28.084Z,98922.53
2023-02-02T14:59:40.492Z,98932.88
2023-02-02T15:04:43.619Z,98942.59
2023-02-02T15:09:46.287Z,98932.50
2023-02-02T15:14:51.754Z,98925.13
2023-02-02T15:20:09.011Z,98929.00
2023-02-02T15:25:54.897Z,98936.63
2023-02-02T15:31:28.294Z,98941.41
2023-02-02T15:36:39.325Z,98952.19
2023-02-02T15:41:46.675Z,98966.09
2023-02-02T15:46:49.670Z,98972.69
2023-02-02T15:51:55.775Z,98978.38
2023-02-02T15:57:00.850Z,98972.22
2023-02-02T16:02:19.546Z,98997.78
2023-02-02T16:07:31.503Z,99003.91
2023-02-02T16:12:35.679Z,99020.13
2023-02-02T16:17:38.363Z,99032.56
2023-02-02T16:22:42.333Z,99038.13
2023-02-02T16:27:47.869Z,99051.22
2023-02-02T16:32:50.337Z,99082.13
2023-02-02T16:37:52.762Z,99093.41
2023-02-02T16:43:27.475Z,99110.75
2023-02-02T16:48:37.344Z,99113.84
2023-02-02T16:53:40.236Z,99115.41
2023-02-02T16:58:45.640Z,99125.38
2023-02-02T17:03:54.037Z,99141.09
2023-02-02T17:08:56.603Z,99144.13
2023-02-02T17:14:17.948Z,99144.88
2023-02-02T17:19:20.590Z,99142.63
2023-02-02T17:24:23.225Z,99144.78
2023-02-02T17:29:25.864Z,99158.47
2023-02-02T17:34:30.933Z,99173.59
2023-02-02T17:39:33.395Z,99179.38
2023-02-02T17:44:36.036Z,99183.00
2023-02-02T17:49:39.194Z,99183.09
2023-02-02T17:54:41.833Z,99171.06
2023-02-02T17:59:44.272Z,99190.34
2023-02-02T18:04:46.731Z,99208.03
2023-02-02T18:09:49.168Z,99199.28
2023-02-02T18:14:51.609Z,99215.38
2023-02-02T18:19:55.891Z,99207.03
2023-02-02T18:25:01.054Z,99210.06
2023-02-02T18:30:04.052Z,99213.44
2023-02-02T18:35:08.593Z,99211.16
2023-02-02T18:40:11.862Z,99220.47
2023-02-02T18:45:14.571Z,99214.13
2023-02-02T18:50:17.189Z,99217.03
2023-02-02T18:55:19.942Z,99218.97
2023-02-02T19:00:22.594Z,99218.88
2023-02-02T19:05:43.660Z,99217.59
2023-02-02T19:10:46.521Z,99222.56
2023-02-02T19:15:50.832Z,99238.06
2023-02-02T19:20:53.718Z,99218.88
2023-02-02T19:25:56.782Z,99226.19
2023-02-02T19:31:01.860Z,99230.53
2023-02-02T19:36:08.289Z,99226.44
2023-02-02T19:41:22.747Z,99227.25
2023-02-02T19:46:29.606Z,99230.38
2023-02-02T19:51:53.682Z,99222.06
2023-02-02T19:57:36.286Z,99234.63
2023-02-02T20:03:07.630Z,99219.31
2023-02-02T20:08:25.078Z,99220.53
2023-02-02T20:13:45.583Z,99217.59
2023-02-02T20:18:56.489Z,99215.81
2023-02-02T20:23:59.099Z,99215.44
2023-02-02T20:29:17.876Z,99229.22
2023-02-02T20:34:40.037Z,99220.13
2023-02-02T20:39:45.653Z,99213.66
2023-02-02T20:44:48.462Z,99196.50
2023-02-02T20:49:51.221Z,99195.66
2023-02-02T20:54:53.774Z,99201.72
2023-02-02T20:59:57.831Z,99211.53
2023-02-02T21:05:01.424Z,99229.38
2023-02-02T21:10:05.145Z,99220.75
2023-02-02T21:15:08.220Z,99212.44
2023-02-02T21:20:12.944Z,99218.25
2023-02-02T21:25:15.525Z,99220.97
2023-02-02T21:30:18.497Z,99218.69
2023-02-02T21:35:21.165Z,99227.72
2023-02-02T21:40:30.487Z,99220.13
2023-02-02T21:45:37.818Z,99224.06
2023-02-02T21:50:41.917Z,99220.53
2023-02-02T21:55:46.278Z,99219.81
2023-02-02T22:00:50.236Z,99230.09
2023-02-02T22:05:53.703Z,99226.03
2023-02-02T22:10:56.135Z,99236.22
2023-02-02T22:15:58.582Z,99223.56
2023-02-02T22:21:01.044Z,99220.25
2023-02-02T22:26:03.828Z,99229.84
2023-02-02T22:31:06.783Z,99238.88
2023-02-02T22:36:09.599Z,99232.75
2023-02-02T22:41:12.340Z,99220.69
2023-02-02T22:46:14.785Z,99226.53
2023-02-02T22:51:17.214Z,99228.75
2023-02-02T22:56:19.830Z,99236.06
2023-02-02T23:01:22.249Z,99222.94
2023-02-02T23:06:24.918Z,99219.81
2023-02-02T23:11:27.365Z,99237.50
2023-02-02T23:16:29.959Z,99229.69
2023-02-02T23:21:32.416Z,99248.28
2023-02-02T23:26:34.884Z,99260.63
2023-02-02T23:31:37.545Z,99273.84
2023-02-02T23:36:40.268Z,99277.69
2023-02-02T23:41:42.778Z,99269.94
2023-02-02T23:46:45.363Z,99280.72
2023-02-02T23:51:48.198Z,99281.03
2023-02-02T23:56:51.490Z,99262.06
